createdAt,value
2022-08-23T00:00:13.460Z,22.03
2022-08-23T00:03:10.749Z,21.95
2022-08-23T00:06:07.755Z,21.92
2022-08-23T00:09:05.285Z,21.88
2022-08-23T00:12:02.725Z,21.93
2022-08-23T00:14:59.945Z,21.65
2022-08-23T00:17:56.888Z,21.79
2022-08-23T00:20:53.814Z,21.49
2022-08-23T00:23:51.171Z,21.53
2022-08-23T00:27:12.701Z,21.62
2022-08-23T00:30:10.784Z,21.62
2022-08-23T00:33:08.068Z,21.57
2022-08-23T00:36:05.621Z,21.58
2022-08-23T00:39:02.796Z,21.56
2022-08-23T00:42:27.953Z,21.65
2022-08-23T00:45:49.149Z,21.66
2022-08-23T00:48:47.105Z,21.61
2022-08-23T00:51:53.637Z,21.59
2022-08-23T00:54:52.973Z,21.59
2022-08-23T00:57:49.850Z,21.42
2022-08-23T01:00:50.260Z,21.47
2022-08-23T01:04:03.983Z,21.47
2022-08-23T01:07:19.525Z,21.31
2022-08-23T01:10:32.029Z,21.33
2022-08-23T01:13:39.436Z,21.43
2022-08-23T01:17:17.686Z,21.53
2022-08-23T01:20:19.483Z,21.70
2022-08-23T01:23:45.648Z,21.82
2022-08-23T01:26:42.723Z,21.76
2022-08-23T01:29:40.710Z,21.61
2022-08-23T01:35:38.231Z,21.56
2022-08-23T01:38:36.217Z,21.49
2022-08-23T01:41:34.209Z,21.42
2022-08-23T01:44:31.747Z,21.36
2022-08-23T01:47:30.012Z,21.28
2022-08-23T01:50:28.317Z,21.33
2022-08-23T01:53:25.624Z,21.39
2022-08-23T01:56:38.185Z,21.31
2022-08-23T01:59:37.533Z,21.14
2022-08-23T02:02:35.251Z,20.98
2022-08-23T02:05:33.168Z,20.90
2022-08-23T02:08:49.819Z,20.93
2022-08-23T02:11:51.972Z,21.05
2022-08-23T02:14:49.110Z,21.15
2022-08-23T02:17:54.986Z,21.17
2022-08-23T02:20:52.462Z,21.22
2022-08-23T02:23:51.664Z,21.23
2022-08-23T02:26:50.476Z,21.28
2022-08-23T02:29:53.962Z,21.21
2022-08-23T02:32:52.022Z,21.09
2022-08-23T02:35:50.084Z,20.95
2022-08-23T02:38:48.084Z,20.85
2022-08-23T02:41:44.699Z,20.75
2022-08-23T02:44:41.877Z,20.72
2022-08-23T02:47:40.020Z,20.71
2022-08-23T02:50:50.788Z,20.66
2022-08-23T02:53:49.112Z,20.75
2022-08-23T02:56:47.589Z,20.63
2022-08-23T02:59:44.989Z,20.50
2022-08-23T03:02:42.863Z,20.35
2022-08-23T03:05:40.861Z,20.30
2022-08-23T03:08:38.010Z,20.37
2022-08-23T03:11:36.356Z,20.33
2022-08-23T03:14:35.175Z,20.17
2022-08-23T03:17:35.109Z,20.16
2022-08-23T03:20:34.545Z,20.17
2022-08-23T03:23:33.274Z,20.08
2022-08-23T03:26:30.809Z,19.96
2022-08-23T03:29:28.761Z,19.93
2022-08-23T03:32:30.085Z,19.99
2022-08-23T03:35:28.158Z,20.04
2022-08-23T03:38:26.058Z,20.16
2022-08-23T03:41:23.180Z,20.22
2022-08-23T03:44:20.917Z,20.25
2022-08-23T03:47:18.931Z,20.21
2022-08-23T03:50:20.881Z,20.12
2022-08-23T03:53:17.959Z,20.01
2022-08-23T03:56:27.360Z,19.94
2022-08-23T03:59:24.821Z,19.95
2022-08-23T04:02:22.129Z,20.04
2022-08-23T04:05:19.966Z,20.01
2022-08-23T04:08:27.078Z,19.97
2022-08-23T04:11:31.597Z,19.89
2022-08-23T04:14:35.534Z,19.91
2022-08-23T04:17:33.717Z,19.96
2022-08-23T04:20:31.062Z,19.95
2022-08-23T04:23:31.538Z,19.85
2022-08-23T04:26:30.346Z,19.71
2022-08-23T04:29:34.396Z,19.67
2022-08-23T04:32:33.206Z,19.63
2022-08-23T04:35:32.486Z,19.56
2022-08-23T04:38:29.831Z,19.45
2022-08-23T04:41:50.440Z,19.41
2022-08-23T04:44:48.050Z,19.50
2022-08-23T04:47:45.240Z,19.58
2022-08-23T04:50:43.062Z,19.66
2022-08-23T04:53:50.994Z,19.70
2022-08-23T04:57:16.889Z,19.73
2022-08-23T05:00:16.909Z,19.73
2022-08-23T05:03:21.232Z,19.74
2022-08-23T05:06:18.686Z,19.80
2022-08-23T05:09:20.446Z,19.87
2022-08-23T05:12:18.114Z,19.87
2022-08-23T05:15:21.017Z,19.87
2022-08-23T05:18:25.002Z,19.90
2022-08-23T05:21:23.705Z,19.92
2022-08-23T05:24:21.309Z,20.01
2022-08-23T05:27:19.167Z,20.15
2022-08-23T05:30:16.271Z,20.28
2022-08-23T05:33:13.760Z,20.37
2022-08-23T05:36:12.109Z,20.43
2022-08-23T05:39:08.977Z,20.55
2022-08-23T05:42:10.836Z,20.67
2022-08-23T05:45:09.646Z,20.77
2022-08-23T05:48:06.753Z,20.84
2022-08-23T05:51:18.074Z,20.90
2022-08-23T05:54:15.131Z,21.02
2022-08-23T05:57:12.246Z,21.06
2022-08-23T06:00:13.372Z,21.12
2022-08-23T06:03:15.921Z,21.09
2022-08-23T06:06:13.467Z,21.15
2022-08-23T06:09:15.117Z,21.07
2022-08-23T06:12:13.114Z,21.14
2022-08-23T06:15:10.899Z,21.15
2022-08-23T06:18:07.945Z,21.02
2022-08-23T06:21:08.044Z,21.02
2022-08-23T06:24:15.930Z,21.19
2022-08-23T06:27:24.066Z,21.32
2022-08-23T06:30:20.870Z,21.65
2022-08-23T06:33:27.455Z,21.84
2022-08-23T06:36:33.359Z,21.85
2022-08-23T06:39:46.120Z,21.87
2022-08-23T06:43:07.139Z,21.88
2022-08-23T06:46:24.245Z,21.95
2022-08-23T06:49:22.284Z,22.18
2022-08-23T06:52:19.570Z,22.26
2022-08-23T06:55:26.878Z,22.35
2022-08-23T06:58:33.968Z,22.40
2022-08-23T07:02:08.003Z,22.41
2022-08-23T07:05:24.143Z,22.46
2022-08-23T07:08:42.853Z,22.50
2022-08-23T07:11:39.887Z,22.56
2022-08-23T07:14:37.178Z,22.61
2022-08-23T07:17:35.498Z,22.91
2022-08-23T07:20:32.948Z,22.84
2022-08-23T07:23:33.553Z,22.94
2022-08-23T07:26:33.478Z,23.08
2022-08-23T07:29:31.517Z,23.25
2022-08-23T07:32:29.159Z,23.58
2022-08-23T07:35:28.492Z,23.62
2022-08-23T07:38:30.628Z,23.57
2022-08-23T07:41:30.999Z,23.73
2022-08-23T07:44:30.162Z,23.70
2022-08-23T07:47:29.687Z,23.73
2022-08-23T07:50:30.508Z,23.87
2022-08-23T07:53:37.699Z,24.06
2022-08-23T07:56:37.376Z,24.11
2022-08-23T07:59:46.050Z,24.19
2022-08-23T08:03:11.583Z,24.23
2022-08-23T08:06:28.073Z,24.43
2022-08-23T08:09:25.215Z,24.71
2022-08-23T08:12:23.493Z,24.84
2022-08-23T08:15:24.079Z,24.74
2022-08-23T08:18:28.424Z,24.88
2022-08-23T08:21:48.604Z,25.03
2022-08-23T08:24:55.041Z,25.12
2022-08-23T08:27:52.499Z,25.27
2022-08-23T08:30:50.162Z,25.47
2022-08-23T08:33:47.077Z,25.44
2022-08-23T08:36:47.386Z,25.51
2022-08-23T08:39:47.415Z,25.61
2022-08-23T08:42:48.982Z,25.83
2022-08-23T08:46:04.303Z,25.83
2022-08-23T08:49:04.798Z,25.78
2022-08-23T08:52:11.194Z,25.92
2022-08-23T08:55:12.065Z,26.08
2022-08-23T08:58:14.842Z,26.12
2022-08-23T09:01:12.439Z,26.29
2022-08-23T09:04:10.065Z,26.21
2022-08-23T09:07:15.745Z,26.28
2022-08-23T09:10:42.769Z,26.33
2022-08-23T09:13:55.381Z,26.63
2022-08-23T09:16:53.951Z,26.72
2022-08-23T09:19:51.641Z,26.70
2022-08-23T09:22:52.470Z,26.72
2022-08-23T09:26:03.516Z,26.83
2022-08-23T09:29:26.626Z,27.06
2022-08-23T09:32:26.926Z,27.07
2022-08-23T09:35:25.650Z,27.22
2022-08-23T09:38:33.963Z,27.27
2022-08-23T09:41:43.194Z,27.22
2022-08-23T09:44:42.307Z,27.38
2022-08-23T09:47:44.392Z,27.57
2022-08-23T09:50:50.246Z,27.70
2022-08-23T09:54:19.734Z,27.81
2022-08-23T09:57:18.083Z,27.78
2022-08-23T10:00:27.885Z,28.04
2022-08-23T10:03:28.956Z,28.07
2022-08-23T10:06:34.195Z,27.86
2022-08-23T10:09:34.520Z,27.73
2022-08-23T10:12:35.581Z,28.10
2022-08-23T10:15:40.584Z,28.47
2022-08-23T10:19:02.861Z,28.35
2022-08-23T10:22:22.094Z,28.72
2022-08-23T10:25:44.999Z,28.77
2022-08-23T10:29:14.959Z,28.73
2022-08-23T10:32:19.073Z,28.79
2022-08-23T10:35:23.884Z,28.71
2022-08-23T10:38:33.205Z,29.02
2022-08-23T10:41:57.054Z,29.11
2022-08-23T10:45:22.613Z,28.93
2022-08-23T10:48:28.889Z,28.95
2022-08-23T10:51:31.695Z,29.13
2022-08-23T10:54:35.872Z,29.18
2022-08-23T10:57:40.327Z,29.15
2022-08-23T11:00:38.317Z,29.21
2022-08-23T11:03:50.406Z,29.27
2022-08-23T11:06:51.122Z,29.29
2022-08-23T11:10:09.904Z,29.47
2022-08-23T11:13:14.115Z,29.44
2022-08-23T11:16:15.898Z,29.50
2022-08-23T11:19:15.649Z,29.37
2022-08-23T11:22:23.227Z,29.43
2022-08-23T11:25:22.104Z,29.60
2022-08-23T11:28:25.912Z,29.51
2022-08-23T11:31:53.422Z,29.64
2022-08-23T11:34:55.264Z,29.58
2022-08-23T11:37:59.882Z,29.29
2022-08-23T11:41:34.140Z,29.40
2022-08-23T11:44:42.565Z,29.55
2022-08-23T11:47:42.661Z,29.51
2022-08-23T11:50:45.837Z,29.63
2022-08-23T11:53:49.502Z,29.70
2022-08-23T11:56:58.081Z,29.86
2022-08-23T12:00:29.045Z,29.99
2022-08-23T12:03:35.520Z,30.05
2022-08-23T12:06:50.593Z,30.09
2022-08-23T12:09:50.253Z,29.82
2022-08-23T12:12:47.511Z,30.08
2022-08-23T12:16:19.406Z,29.97
2022-08-23T12:19:32.323Z,30.20
2022-08-23T12:22:53.648Z,30.10
2022-08-23T12:26:09.470Z,30.42
2022-08-23T12:29:27.929Z,30.44
2022-08-23T12:32:52.711Z,30.01
2022-08-23T12:35:50.389Z,29.96
2022-08-23T12:39:09.958Z,30.10
2022-08-23T12:42:13.808Z,30.13
2022-08-23T12:45:41.467Z,30.01
2022-08-23T12:48:46.859Z,29.85
2022-08-23T12:51:52.354Z,30.26
2022-08-23T12:54:50.669Z,30.52
2022-08-23T12:57:54.690Z,30.48
2022-08-23T13:00:54.586Z,30.34
2022-08-23T13:04:19.686Z,30.54
2022-08-23T13:07:19.747Z,30.46
2022-08-23T13:10:17.332Z,30.25
2022-08-23T13:13:16.757Z,30.25
2022-08-23T13:16:26.802Z,30.31
2022-08-23T13:19:29.273Z,30.54
2022-08-23T13:22:26.772Z,30.59
2022-08-23T13:25:31.153Z,30.62
2022-08-23T13:28:31.096Z,30.73
2022-08-23T13:32:02.526Z,30.69
2022-08-23T13:35:23.231Z,30.62
2022-08-23T13:38:25.484Z,30.63
2022-08-23T13:41:39.172Z,30.78
2022-08-23T13:44:36.753Z,30.69
2022-08-23T13:47:35.836Z,30.76
2022-08-23T13:50:36.090Z,30.87
2022-08-23T13:53:33.429Z,31.09
2022-08-23T13:56:36.887Z,31.23
2022-08-23T13:59:40.324Z,31.36
2022-08-23T14:02:37.975Z,31.40
2022-08-23T14:05:35.596Z,31.27
2022-08-23T14:08:32.310Z,31.06
2022-08-23T14:11:29.295Z,31.11
2022-08-23T14:14:26.597Z,31.19
2022-08-23T14:17:23.387Z,31.36
2022-08-23T14:23:38.498Z,31.22
2022-08-23T14:26:35.422Z,31.28
2022-08-23T14:29:32.485Z,31.31
2022-08-23T14:32:29.569Z,31.30
2022-08-23T14:35:26.727Z,31.57
2022-08-23T14:38:23.743Z,31.35
2022-08-23T14:41:22.761Z,31.32
2022-08-23T14:44:19.282Z,31.30
2022-08-23T14:47:16.881Z,31.47
2022-08-23T14:50:14.576Z,31.83
2022-08-23T14:53:12.589Z,31.82
2022-08-23T14:56:20.991Z,31.73
2022-08-23T14:59:18.758Z,31.58
2022-08-23T15:02:17.592Z,31.45
2022-08-23T15:05:15.124Z,30.87
2022-08-23T15:08:12.818Z,30.79
2022-08-23T15:14:27.485Z,30.99
2022-08-23T15:17:30.322Z,31.34
2022-08-23T15:20:31.100Z,31.56
2022-08-23T15:23:28.629Z,31.42
2022-08-23T15:26:27.237Z,31.64
2022-08-23T15:29:24.768Z,31.69
2022-08-23T15:32:22.499Z,31.23
2022-08-23T15:35:21.036Z,31.23
2022-08-23T15:38:18.664Z,31.32
2022-08-23T15:41:17.845Z,31.17
2022-08-23T15:44:15.696Z,31.21
2022-08-23T15:47:25.470Z,31.09
2022-08-23T15:50:24.272Z,31.07
2022-08-23T15:53:22.131Z,31.10
2022-08-23T15:56:22.520Z,31.04
2022-08-23T15:59:19.637Z,31.05
2022-08-23T16:02:16.608Z,31.10
2022-08-23T16:05:13.530Z,31.20
2022-08-23T16:08:14.939Z,31.46
2022-08-23T16:11:13.028Z,31.54
2022-08-23T16:14:10.871Z,31.53
2022-08-23T16:17:07.758Z,31.45
2022-08-23T16:20:05.459Z,31.42
2022-08-23T16:23:02.493Z,31.16
2022-08-23T16:26:01.305Z,31.14
2022-08-23T16:28:58.748Z,31.19
2022-08-23T16:31:57.633Z,31.16
2022-08-23T16:34:54.796Z,31.33
2022-08-23T16:37:54.537Z,31.46
2022-08-23T16:40:51.558Z,31.63
2022-08-23T16:43:49.256Z,31.75
2022-08-23T16:46:47.130Z,31.83
2022-08-23T16:49:44.914Z,31.93
2022-08-23T16:52:41.515Z,31.84
2022-08-23T16:55:38.704Z,31.87
2022-08-23T16:58:36.698Z,31.79
2022-08-23T17:01:50.282Z,31.71
2022-08-23T17:04:52.173Z,31.64
2022-08-23T17:07:50.625Z,31.51
2022-08-23T17:10:48.808Z,31.25
2022-08-23T17:13:45.929Z,31.11
2022-08-23T17:16:44.084Z,30.79
2022-08-23T17:19:41.783Z,30.66
2022-08-23T17:22:38.392Z,30.65
2022-08-23T17:25:36.296Z,30.61
2022-08-23T17:28:33.822Z,30.60
2022-08-23T17:31:30.560Z,30.43
2022-08-23T17:34:27.680Z,30.50
2022-08-23T17:37:24.624Z,30.42
2022-08-23T17:40:24.948Z,30.42
2022-08-23T17:43:21.794Z,30.44
2022-08-23T17:46:18.686Z,30.43
2022-08-23T17:49:16.454Z,30.40
2022-08-23T17:52:13.607Z,30.37
2022-08-23T17:55:10.799Z,30.23
2022-08-23T17:58:08.163Z,30.27
2022-08-23T18:01:07.598Z,30.32
2022-08-23T18:04:05.973Z,30.18
2022-08-23T18:07:02.772Z,29.83
2022-08-23T18:09:59.737Z,29.64
2022-08-23T18:12:57.621Z,29.56
2022-08-23T18:15:54.671Z,29.44
2022-08-23T18:18:51.596Z,29.32
2022-08-23T18:21:49.570Z,29.08
2022-08-23T18:24:46.838Z,28.84
2022-08-23T18:28:02.884Z,28.81
2022-08-23T18:31:03.488Z,28.76
2022-08-23T18:34:00.946Z,28.66
2022-08-23T18:36:59.335Z,28.56
2022-08-23T18:39:57.677Z,28.47
2022-08-23T18:42:55.116Z,28.39
2022-08-23T18:45:53.782Z,28.39
2022-08-23T18:48:53.591Z,28.45
2022-08-23T18:51:50.986Z,28.32
2022-08-23T18:54:48.025Z,28.03
2022-08-23T18:57:46.077Z,27.77
2022-08-23T19:00:43.718Z,27.55
2022-08-23T19:03:40.689Z,27.47
2022-08-23T19:06:37.835Z,27.41
2022-08-23T19:09:34.934Z,27.53
2022-08-23T19:12:31.455Z,27.49
2022-08-23T19:15:33.998Z,27.43
2022-08-23T19:18:30.635Z,27.43
2022-08-23T19:21:27.840Z,27.54
2022-08-23T19:24:25.052Z,27.71
2022-08-23T19:27:21.664Z,27.60
2022-08-23T19:30:19.114Z,27.50
2022-08-23T19:33:17.914Z,27.51
2022-08-23T19:36:35.718Z,27.45
2022-08-23T19:39:31.839Z,27.35
2022-08-23T19:42:28.889Z,27.35
2022-08-23T19:45:26.061Z,27.28
2022-08-23T19:48:28.654Z,27.21
2022-08-23T19:51:26.490Z,27.00
2022-08-23T19:54:23.624Z,27.03
2022-08-23T19:57:23.088Z,27.02
2022-08-23T20:00:20.767Z,27.07
2022-08-23T20:03:17.918Z,27.17
2022-08-23T20:06:18.925Z,27.03
2022-08-23T20:09:17.334Z,26.90
2022-08-23T20:12:16.931Z,26.74
2022-08-23T20:15:13.867Z,26.65
2022-08-23T20:18:10.999Z,26.67
2022-08-23T20:21:08.265Z,26.73
2022-08-23T20:24:07.402Z,26.77
2022-08-23T20:27:06.219Z,26.72
2022-08-23T20:30:08.314Z,26.57
2022-08-23T20:33:05.754Z,26.56
2022-08-23T20:36:03.446Z,26.45
2022-08-23T20:39:01.044Z,26.32
2022-08-23T20:41:58.234Z,26.23
2022-08-23T20:44:55.989Z,26.12
2022-08-23T20:47:52.603Z,26.01
2022-08-23T20:50:49.901Z,26.01
2022-08-23T20:53:47.336Z,25.88
2022-08-23T20:56:45.104Z,25.86
2022-08-23T20:59:44.682Z,25.82
2022-08-23T21:02:41.565Z,25.92
2022-08-23T21:05:39.137Z,26.02
2022-08-23T21:08:35.548Z,25.93
2022-08-23T21:11:39.950Z,25.86
2022-08-23T21:14:36.972Z,25.82
2022-08-23T21:17:33.933Z,25.75
2022-08-23T21:20:30.953Z,25.71
2022-08-23T21:23:27.856Z,25.76
2022-08-23T21:26:24.983Z,25.71
2022-08-23T21:29:21.952Z,25.90
2022-08-23T21:32:18.754Z,25.84
2022-08-23T21:35:15.719Z,26.01
2022-08-23T21:38:12.744Z,26.20
2022-08-23T21:41:12.086Z,26.34
2022-08-23T21:44:11.299Z,26.45
2022-08-23T21:47:09.015Z,26.26
2022-08-23T21:50:06.062Z,26.20
2022-08-23T21:53:04.245Z,25.98
2022-08-23T21:56:02.094Z,25.71
2022-08-23T21:58:59.635Z,25.52
2022-08-23T22:01:57.384Z,25.44
2022-08-23T22:04:54.829Z,25.52
2022-08-23T22:07:52.099Z,25.62
2022-08-23T22:10:57.833Z,25.44
2022-08-23T22:13:56.270Z,25.39
2022-08-23T22:16:55.317Z,25.42
2022-08-23T22:19:52.939Z,25.47
2022-08-23T22:22:50.744Z,25.51
2022-08-23T22:25:48.016Z,25.51
2022-08-23T22:28:45.983Z,25.43
2022-08-23T22:31:43.334Z,25.22
2022-08-23T22:34:41.174Z,25.01
2022-08-23T22:37:45.930Z,24.85
2022-08-23T22:40:51.865Z,24.89
2022-08-23T22:43:49.051Z,24.84
2022-08-23T22:46:46.130Z,24.89
2022-08-23T22:49:43.036Z,24.80
2022-08-23T22:52:40.499Z,24.60
2022-08-23T22:55:37.837Z,24.45
2022-08-23T22:58:35.053Z,24.33
2022-08-23T23:01:34.468Z,24.22
2022-08-23T23:04:33.728Z,24.16
2022-08-23T23:07:49.587Z,24.08
2022-08-23T23:10:46.657Z,24.16
2022-08-23T23:13:44.580Z,24.14
2022-08-23T23:16:42.243Z,24.21
2022-08-23T23:19:58.439Z,24.23
2022-08-23T23:22:55.863Z,24.34
2022-08-23T23:25:52.904Z,24.29
2022-08-23T23:28:50.216Z,24.25
2022-08-23T23:31:46.931Z,24.12
2022-08-23T23:34:43.821Z,23.96
2022-08-23T23:37:40.907Z,23.91
2022-08-23T23:40:38.512Z,23.85
2022-08-23T23:43:35.883Z,23.96
2022-08-23T23:46:32.986Z,24.15
2022-08-23T23:49:32.122Z,24.16
2022-08-23T23:52:29.808Z,24.14
2022-08-23T23:55:27.336Z,24.10
2022-08-23T23:58:24.675Z,24.01
